Time,TemperatureF,DewpointF,PressureIn,WindDirection,WindDirectionDegrees,WindSpeedMPH,WindSpeedGustMPH,Humidity,HourlyPrecipIn,Conditions,Clouds,dailyrainin,SoftwareType,DateUTC
2013-06-03 00:01:00,60.8,58.2,29.92,West,270,0.0,0.0,91,0.00,,---,0.00,VWS V14.01,2013-06-03 04:01:00,
2013-06-03 00:06:00,60.9,58.3,29.92,West,261,0.0,0.0,91,0.00,,---,0.00,VWS V14.01,2013-06-03 04:06:00,
2013-06-03 00:11:00,61.0,58.4,29.93,West,272,0.0,0.0,91,0.00,,---,0.00,VWS V14.01,2013-06-03 04:11:00,
2013-06-03 00:16:00,60.9,58.3,29.93,West,272,0.0,0.0,91,0.00,,---,0.00,VWS V14.01,2013-06-03 04:16:00,
2013-06-03 00:21:00,60.8,58.2,29.92,West,266,0.0,0.0,91,0.00,,---,0.00,VWS V14.01,2013-06-03 04:21:00,
2013-06-03 00:26:00,60.7,58.1,29.92,WSW,237,0.0,1.0,91,0.00,,---,0.00,VWS V14.01,2013-06-03 04:26:00,
2013-06-03 00:31:00,60.6,58.0,29.93,WSW,239,0.0,0.0,91,0.00,,---,0.00,VWS V14.01,2013-06-03 04:31:00,
2013-06-03 00:36:00,60.4,57.8,29.93,WSW,239,0.0,0.0,91,0.00,,---,0.00,VWS V14.01,2013-06-03 04:36:00,
2013-06-03 00:41:00,60.1,57.5,29.92,WSW,239,0.0,0.0,91,0.00,,---,0.00,VWS V14.01,2013-06-03 04:41:00,
2013-06-03 00:46:00,59.8,57.2,29.93,WSW,239,0.0,0.0,91,0.00,,---,0.00,VWS V14.01,2013-06-03 04:46:00,
2013-06-03 00:50:00,59.6,57.3,29.93,WSW,239,0.0,0.0,92,0.00,,---,0.00,VWS V14.01,2013-06-03 04:50:00,
2013-06-03 00:55:00,59.6,57.6,29.93,WSW,249,0.0,0.0,93,0.00,,---,0.00,VWS V14.01,2013-06-03 04:55:00,
2013-06-03 01:00:00,59.7,57.7,29.93,WSW,249,0.0,0.0,93,0.00,,---,0.00,VWS V14.01,2013-06-03 05:00:00,
2013-06-03 01:05:00,59.7,57.7,29.93,WSW,250,0.0,0.0,93,0.00,,---,0.00,VWS V14.01,2013-06-03 05:05:00,
2013-06-03 01:10:00,59.7,57.7,29.93,WSW,250,0.0,0.0,93,0.00,,---,0.00,VWS V14.01,2013-06-03 05:10:00,
2013-06-03 01:15:00,59.6,57.6,29.93,WSW,249,0.0,0.0,93,0.00,,---,0.00,VWS V14.01,2013-06-03 05:15:00,
2013-06-03 01:20:00,59.6,57.6,29.93,WSW,249,0.0,0.0,93,0.00,,---,0.00,VWS V14.01,2013-06-03 05:20:00,
2013-06-03 01:25:00,59.5,57.5,29.93,WSW,249,0.0,0.0,93,0.00,,---,0.00,VWS V14.01,2013-06-03 05:25:00,
2013-06-03 01:30:00,59.4,57.4,29.93,WSW,249,0.0,0.0,93,0.00,,---,0.00,VWS V14.01,2013-06-03 05:30:00,
2013-06-03 01:35:00,59.3,57.3,29.93,WSW,249,0.0,0.0,93,0.00,,---,0.00,VWS V14.01,2013-06-03 05:35:00,
2013-06-03 01:40:00,59.2,57.2,29.93,WSW,249,0.0,0.0,93,0.00,,---,0.00,VWS V14.01,2013-06-03 05:40:00,
2013-06-03 01:45:00,59.1,57.1,29.93,WSW,250,0.0,0.0,93,0.00,,---,0.00,VWS V14.01,2013-06-03 05:45:00,
2013-06-03 01:50:00,59.1,57.4,29.93,WSW,249,0.0,0.0,94,0.00,,---,0.00,VWS V14.01,2013-06-03 05:50:00,
2013-06-03 01:55:00,59.1,57.4,29.93,WSW,249,0.0,0.0,94,0.00,,---,0.00,VWS V14.01,2013-06-03 05:55:00,
2013-06-03 02:00:00,59.1,57.4,29.93,WSW,250,0.0,0.0,94,0.00,,---,0.00,VWS V14.01,2013-06-03 06:00:00,
2013-06-03 02:05:00,59.0,57.3,29.93,WSW,252,0.0,0.0,94,0.00,,---,0.00,VWS V14.01,2013-06-03 06:05:00,
2013-06-03 02:10:00,59.0,57.3,29.93,West,267,0.0,0.0,94,0.00,,---,0.00,VWS V14.01,2013-06-03 06:10:00,
2013-06-03 02:15:00,59.1,57.4,29.93,West,280,0.0,0.0,94,0.00,,---,0.00,VWS V14.01,2013-06-03 06:15:00,
2013-06-03 02:20:00,59.0,57.3,29.93,West,264,0.0,0.0,94,0.00,,---,0.00,VWS V14.01,2013-06-03 06:20:00,
2013-06-03 02:25:00,59.0,57.3,29.93,West,266,0.0,0.0,94,0.00,,---,0.00,VWS V14.01,2013-06-03 06:25:00,
2013-06-03 02:30:00,58.9,57.2,29.93,WSW,247,0.0,0.0,94,0.00,,---,0.00,VWS V14.01,2013-06-03 06:30:00,
2013-06-03 02:35:00,58.8,57.1,29.94,WSW,247,0.0,0.0,94,0.00,,---,0.00,VWS V14.01,2013-06-03 06:35:00,
2013-06-03 02:40:00,58.7,57.0,29.93,WSW,247,0.0,0.0,94,0.00,,---,0.00,VWS V14.01,2013-06-03 06:40:00,
2013-06-03 02:45:00,58.6,56.9,29.93,WSW,247,0.0,0.0,94,0.00,,---,0.00,VWS V14.01,2013-06-03 06:45:00,
2013-06-03 02:50:00,58.4,56.7,29.93,WSW,247,0.0,0.0,94,0.00,,---,0.00,VWS V14.01,2013-06-03 06:50:00,
2013-06-03 02:55:00,58.2,56.5,29.93,WSW,247,0.0,0.0,94,0.00,,---,0.00,VWS V14.01,2013-06-03 06:55:00,
2013-06-03 03:00:00,58.0,56.3,29.93,WSW,247,0.0,0.0,94,0.00,,---,0.00,VWS V14.01,2013-06-03 07:00:00,
2013-06-03 03:05:00,57.8,56.4,29.93,WSW,247,0.0,0.0,95,0.00,,---,0.00,VWS V14.01,2013-06-03 07:05:00,
2013-06-03 03:10:00,57.7,56.0,29.93,WSW,247,0.0,0.0,94,0.00,,---,0.00,VWS V14.01,2013-06-03 07:10:00,
2013-06-03 03:15:00,57.4,55.7,29.93,WSW,247,0.0,0.0,94,0.00,,---,0.00,VWS V14.01,2013-06-03 07:15:00,
2013-06-03 03:20:00,57.2,55.8,29.93,WSW,247,0.0,0.0,95,0.00,,---,0.00,VWS V14.01,2013-06-03 07:20:00,
2013-06-03 03:25:00,57.2,55.8,29.93,WSW,247,0.0,0.0,95,0.00,,---,0.00,VWS V14.01,2013-06-03 07:25:00,
2013-06-03 03:30:00,57.1,55.7,29.93,WSW,247,0.0,0.0,95,0.00,,---,0.00,VWS V14.01,2013-06-03 07:30:00,
2013-06-03 03:35:00,57.1,55.7,29.93,WSW,247,0.0,0.0,95,0.00,,---,0.00,VWS V14.01,2013-06-03 07:35:00,
2013-06-03 03:40:00,57.1,55.7,29.93,WSW,247,0.0,0.0,95,0.00,,---,0.00,VWS V14.01,2013-06-03 07:40:00,
2013-06-03 03:45:00,56.9,55.5,29.93,WSW,247,0.0,0.0,95,0.00,,---,0.00,VWS V14.01,2013-06-03 07:45:00,
2013-06-03 03:50:00,56.8,55.4,29.93,WSW,247,0.0,0.0,95,0.00,,---,0.00,VWS V14.01,2013-06-03 07:50:00,
2013-06-03 03:55:00,56.8,55.4,29.93,WSW,247,0.0,0.0,95,0.00,,---,0.00,VWS V14.01,2013-06-03 07:55:00,
2013-06-03 04:00:00,57.0,55.6,29.93,WSW,247,0.0,0.0,95,0.00,,---,0.00,VWS V14.01,2013-06-03 08:00:00,
2013-06-03 04:05:00,57.2,56.1,29.93,WSW,247,0.0,0.0,96,0.00,,---,0.00,VWS V14.01,2013-06-03 08:05:00,
2013-06-03 04:10:00,57.6,56.5,29.93,WSW,247,0.0,0.0,96,0.00,,---,0.00,VWS V14.01,2013-06-03 08:10:00,
2013-06-03 04:15:00,58.0,56.9,29.93,WSW,247,0.0,0.0,96,0.00,,---,0.00,VWS V14.01,2013-06-03 08:15:00,
2013-06-03 04:20:00,58.1,57.0,29.94,WSW,247,0.0,0.0,96,0.00,,---,0.00,VWS V14.01,2013-06-03 08:20:00,
2013-06-03 04:25:00,58.2,57.1,29.94,WSW,247,0.0,0.0,96,0.00,,---,0.00,VWS V14.01,2013-06-03 08:25:00,
2013-06-03 04:30:00,58.2,57.1,29.93,WSW,247,0.0,0.0,96,0.00,,---,0.00,VWS V14.01,2013-06-03 08:30:00,
2013-06-03 04:35:00,58.2,57.1,29.93,WSW,247,0.0,0.0,96,0.00,,---,0.00,VWS V14.01,2013-06-03 08:35:00,
2013-06-03 04:40:00,58.3,57.2,29.93,WSW,247,0.0,0.0,96,0.00,,---,0.00,VWS V14.01,2013-06-03 08:40:00,
2013-06-03 04:45:00,58.3,57.2,29.93,WSW,247,0.0,0.0,96,0.00,,---,0.00,VWS V14.01,2013-06-03 08:45:00,
2013-06-03 04:50:00,58.4,57.3,29.94,WSW,247,0.0,0.0,96,0.00,,---,0.00,VWS V14.01,2013-06-03 08:50:00,
2013-06-03 04:55:00,58.4,57.3,29.94,WSW,252,0.0,0.0,96,0.00,,---,0.00,VWS V14.01,2013-06-03 08:55:00,
2013-06-03 05:00:00,58.5,57.4,29.94,WSW,254,0.0,0.0,96,0.00,,---,0.00,VWS V14.01,2013-06-03 09:00:00,
2013-06-03 05:05:00,58.5,57.4,29.94,West,260,0.0,0.0,96,0.00,,---,0.00,VWS V14.01,2013-06-03 09:05:00,
2013-06-03 05:10:00,58.6,57.5,29.94,NW,305,0.0,0.0,96,0.00,,---,0.00,VWS V14.01,2013-06-03 09:10:00,
2013-06-03 05:15:00,58.8,57.7,29.94,NW,304,0.0,0.0,96,0.00,,---,0.00,VWS V14.01,2013-06-03 09:15:00,
2013-06-03 05:20:00,58.9,57.8,29.94,NW,304,0.0,0.0,96,0.00,,---,0.00,VWS V14.01,2013-06-03 09:20:00,
2013-06-03 05:25:00,59.0,57.9,29.94,WNW,298,0.0,1.0,96,0.00,,---,0.00,VWS V14.01,2013-06-03 09:25:00,
2013-06-03 05:30:00,59.0,57.9,29.95,NW,325,0.0,0.0,96,0.00,,---,0.00,VWS V14.01,2013-06-03 09:30:00,
2013-06-03 05:35:00,59.1,57.7,29.95,NNW,337,2.0,2.0,95,0.00,,---,0.00,VWS V14.01,2013-06-03 09:35:00,
2013-06-03 05:40:00,59.2,57.8,29.95,NW,313,2.0,2.0,95,0.00,,---,0.00,VWS V14.01,2013-06-03 09:40:00,
2013-06-03 05:45:00,59.3,57.9,29.95,NW,315,0.0,0.0,95,0.00,,---,0.00,VWS V14.01,2013-06-03 09:45:00,
2013-06-03 05:50:00,59.3,57.9,29.95,NW,320,1.0,2.0,95,0.00,,---,0.00,VWS V14.01,2013-06-03 09:50:00,
2013-06-03 05:55:00,59.4,58.0,29.95,NNW,327,1.0,1.0,95,0.00,,---,0.00,VWS V14.01,2013-06-03 09:55:00,
2013-06-03 06:00:00,59.4,58.0,29.95,NW,312,1.0,2.0,95,0.00,,---,0.00,VWS V14.01,2013-06-03 10:00:00,
2013-06-03 06:05:00,59.4,58.0,29.95,NNW,327,2.0,2.0,95,0.00,,---,0.00,VWS V14.01,2013-06-03 10:05:00,
2013-06-03 06:10:00,59.5,58.1,29.95,NW,317,2.0,2.0,95,0.00,,---,0.00,VWS V14.01,2013-06-03 10:10:00,
2013-06-03 06:15:00,59.4,57.7,29.95,NW,309,0.0,1.0,94,0.00,,---,0.00,VWS V14.01,2013-06-03 10:15:00,
2013-06-03 06:20:00,59.5,57.8,29.95,NW,312,1.0,1.0,94,0.00,,---,0.00,VWS V14.01,2013-06-03 10:20:00,
2013-06-03 06:25:00,59.5,57.8,29.95,NW,316,0.0,1.0,94,0.00,,---,0.00,VWS V14.01,2013-06-03 10:25:00,
2013-06-03 06:30:00,59.5,57.8,29.95,NW,320,3.0,4.0,94,0.00,,---,0.00,VWS V14.01,2013-06-03 10:30:00,
2013-06-03 06:35:00,59.5,57.8,29.96,NNW,330,0.0,1.0,94,0.00,,---,0.00,VWS V14.01,2013-06-03 10:35:00,
2013-06-03 06:40:00,59.6,57.9,29.96,NNW,333,1.0,1.0,94,0.00,,---,0.00,VWS V14.01,2013-06-03 10:40:00,
2013-06-03 06:45:00,59.6,57.6,29.96,North,2,1.0,2.0,93,0.00,,---,0.00,VWS V14.01,2013-06-03 10:45:00,
2013-06-03 06:50:00,59.7,57.7,29.96,NW,308,0.0,0.0,93,0.00,,---,0.00,VWS V14.01,2013-06-03 10:50:00,
2013-06-03 06:55:00,59.7,57.7,29.96,NNW,337,1.0,1.0,93,0.00,,---,0.00,VWS V14.01,2013-06-03 10:55:00,
2013-06-03 07:00:00,59.8,57.8,29.96,NNW,335,2.0,2.0,93,0.00,,---,0.00,VWS V14.01,2013-06-03 11:00:00,
2013-06-03 07:05:00,59.9,57.6,29.97,NNW,342,0.0,1.0,92,0.00,,---,0.00,VWS V14.01,2013-06-03 11:05:00,
2013-06-03 07:10:00,60.0,57.7,29.97,NW,306,1.0,1.0,92,0.00,,---,0.00,VWS V14.01,2013-06-03 11:10:00,
2013-06-03 07:15:00,60.1,57.8,29.97,WNW,292,0.0,1.0,92,0.00,,---,0.00,VWS V14.01,2013-06-03 11:15:00,
2013-06-03 07:20:00,60.2,57.9,29.97,WNW,298,0.0,0.0,92,0.00,,---,0.00,VWS V14.01,2013-06-03 11:20:00,
2013-06-03 07:25:00,60.2,57.6,29.97,NW,320,0.0,0.0,91,0.00,,---,0.00,VWS V14.01,2013-06-03 11:25:00,
2013-06-03 07:30:00,60.2,57.6,29.97,NW,311,1.0,1.0,91,0.00,,---,0.00,VWS V14.01,2013-06-03 11:30:00,
2013-06-03 07:35:00,60.3,57.7,29.97,NNW,327,2.0,2.0,91,0.00,,---,0.00,VWS V14.01,2013-06-03 11:35:00,
2013-06-03 07:40:00,60.3,57.7,29.97,NNW,342,0.0,1.0,91,0.00,,---,0.00,VWS V14.01,2013-06-03 11:40:00,
2013-06-03 07:45:00,60.4,57.2,29.97,NNW,328,2.0,3.0,89,0.00,,---,0.00,VWS V14.01,2013-06-03 11:45:00,
2013-06-03 07:50:00,60.6,57.3,29.97,NNW,335,0.0,1.0,89,0.00,,---,0.00,VWS V14.01,2013-06-03 11:50:00,
2013-06-03 07:55:00,60.7,57.4,29.97,NW,320,2.0,4.0,89,0.00,,---,0.00,VWS V14.01,2013-06-03 11:55:00,
2013-06-03 08:00:00,60.9,57.0,29.98,NE,55,0.0,1.0,87,0.00,,---,0.00,VWS V14.01,2013-06-03 12:00:00,
2013-06-03 08:05:00,61.1,56.9,29.98,North,8,3.0,7.0,86,0.00,,---,0.00,VWS V14.01,2013-06-03 12:05:00,
2013-06-03 08:09:00,61.2,57.0,29.98,NW,319,2.0,3.0,86,0.00,,---,0.00,VWS V14.01,2013-06-03 12:09:00,
2013-06-03 08:14:00,61.3,56.8,29.98,NE,53,1.0,5.0,85,0.00,,---,0.00,VWS V14.01,2013-06-03 12:14:00,
2013-06-03 08:19:00,61.3,56.8,29.98,NNW,342,6.0,7.0,85,0.00,,---,0.00,VWS V14.01,2013-06-03 12:19:00,
2013-06-03 08:24:00,61.2,56.3,29.99,NNW,329,3.0,4.0,84,0.00,,---,0.00,VWS V14.01,2013-06-03 12:24:00,
2013-06-03 08:29:00,61.2,56.3,29.99,NNW,333,6.0,8.0,84,0.00,,---,0.00,VWS V14.01,2013-06-03 12:29:00,
2013-06-03 08:34:00,61.3,56.4,29.99,North,3,4.0,5.0,84,0.00,,---,0.00,VWS V14.01,2013-06-03 12:34:00,
2013-06-03 08:39:00,61.5,56.6,29.99,NNE,32,1.0,3.0,84,0.00,,---,0.00,VWS V14.01,2013-06-03 12:39:00,
2013-06-03 08:44:00,62.2,57.0,29.99,NE,40,1.0,4.0,83,0.00,,---,0.00,VWS V14.01,2013-06-03 12:44:00,
2013-06-03 08:49:00,62.0,56.5,29.99,NNW,333,3.0,5.0,82,0.00,,---,0.00,VWS V14.01,2013-06-03 12:49:00,
2013-06-03 08:54:00,62.1,56.5,29.99,North,2,2.0,5.0,82,0.00,,---,0.00,VWS V14.01,2013-06-03 12:54:00,
2013-06-03 08:59:00,62.1,56.9,29.99,NNW,347,4.0,5.0,83,0.00,,---,0.00,VWS V14.01,2013-06-03 12:59:00,
2013-06-03 09:04:00,62.6,57.4,29.99,North,349,4.0,4.0,83,0.00,,---,0.00,VWS V14.01,2013-06-03 13:04:00,
2013-06-03 09:09:00,63.0,57.1,29.99,NNW,329,4.0,6.0,81,0.00,,---,0.00,VWS V14.01,2013-06-03 13:09:00,
2013-06-03 09:14:00,63.0,57.4,29.99,NNE,22,2.0,3.0,82,0.00,,---,0.00,VWS V14.01,2013-06-03 13:14:00,
2013-06-03 09:19:00,63.5,56.9,29.99,NE,49,3.0,4.0,79,0.00,,---,0.00,VWS V14.01,2013-06-03 13:19:00,
2013-06-03 09:24:00,63.7,56.7,29.99,NNW,338,6.0,6.0,78,0.00,,---,0.00,VWS V14.01,2013-06-03 13:24:00,
2013-06-03 09:29:00,64.0,57.0,30.00,NW,308,3.0,7.0,78,0.00,,---,0.00,VWS V14.01,2013-06-03 13:29:00,
2013-06-03 09:34:00,64.4,57.4,30.00,NE,36,1.0,4.0,78,0.00,,---,0.00,VWS V14.01,2013-06-03 13:34:00,
2013-06-03 09:39:00,65.1,57.7,30.00,East,82,1.0,1.0,77,0.00,,---,0.00,VWS V14.01,2013-06-03 13:39:00,
2013-06-03 09:44:00,65.8,58.4,30.01,NW,320,2.0,2.0,77,0.00,,---,0.00,VWS V14.01,2013-06-03 13:44:00,
2013-06-03 09:49:00,65.6,57.8,30.01,NNE,23,2.0,3.0,76,0.00,,---,0.00,VWS V14.01,2013-06-03 13:49:00,
2013-06-03 09:54:00,65.5,57.4,30.01,NNW,327,3.0,4.0,75,0.00,,---,0.00,VWS V14.01,2013-06-03 13:54:00,
2013-06-03 09:59:00,65.6,57.8,30.01,NW,315,5.0,5.0,76,0.00,,---,0.00,VWS V14.01,2013-06-03 13:59:00,
2013-06-03 10:04:00,65.5,57.4,30.01,NNE,17,2.0,4.0,75,0.00,,---,0.00,VWS V14.01,2013-06-03 14:04:00,
2013-06-03 10:09:00,65.6,57.8,30.01,WNW,294,1.0,4.0,76,0.00,,---,0.00,VWS V14.01,2013-06-03 14:09:00,
2013-06-03 10:14:00,65.6,57.5,30.01,NNW,330,2.0,5.0,75,0.00,,---,0.00,VWS V14.01,2013-06-03 14:14:00,
2013-06-03 10:19:00,65.4,56.9,30.01,North,354,0.0,1.0,74,0.00,,---,0.00,VWS V14.01,2013-06-03 14:19:00,
2013-06-03 10:24:00,65.6,57.5,30.01,WNW,301,3.0,3.0,75,0.00,,---,0.00,VWS V14.01,2013-06-03 14:24:00,
2013-06-03 10:29:00,65.6,57.5,30.02,NNW,342,1.0,2.0,75,0.00,,---,0.00,VWS V14.01,2013-06-03 14:29:00,
2013-06-03 10:34:00,66.0,57.9,30.02,WNW,285,0.0,0.0,75,0.00,,---,0.00,VWS V14.01,2013-06-03 14:34:00,
2013-06-03 10:39:00,66.1,57.2,30.02,NW,313,3.0,3.0,73,0.00,,---,0.00,VWS V14.01,2013-06-03 14:39:00,
2013-06-03 10:44:00,66.0,56.7,30.02,NNW,340,2.0,3.0,72,0.00,,---,0.00,VWS V14.01,2013-06-03 14:44:00,
2013-06-03 10:49:00,65.9,57.0,30.02,NNW,346,2.0,2.0,73,0.00,,---,0.00,VWS V14.01,2013-06-03 14:49:00,
2013-06-03 10:54:00,65.9,57.4,30.02,NNW,327,2.0,3.0,74,0.00,,---,0.00,VWS V14.01,2013-06-03 14:54:00,
2013-06-03 10:59:00,66.2,57.7,30.02,WNW,299,4.0,4.0,74,0.00,,---,0.00,VWS V14.01,2013-06-03 14:59:00,
2013-06-03 11:04:00,66.6,58.1,30.03,WNW,292,3.0,3.0,74,0.00,,---,0.00,VWS V14.01,2013-06-03 15:04:00,
2013-06-03 11:09:00,66.7,57.8,30.03,NW,306,4.0,4.0,73,0.00,,---,0.00,VWS V14.01,2013-06-03 15:09:00,
2013-06-03 11:14:00,66.2,56.9,30.03,NNE,15,1.0,1.0,72,0.00,,---,0.00,VWS V14.01,2013-06-03 15:14:00,
2013-06-03 11:19:00,66.1,57.2,30.04,NW,318,3.0,4.0,73,0.00,,---,0.00,VWS V14.01,2013-06-03 15:19:00,
2013-06-03 11:24:00,65.9,57.0,30.04,NNW,346,0.0,0.0,73,0.00,,---,0.00,VWS V14.01,2013-06-03 15:24:00,
2013-06-03 11:29:00,66.2,58.0,30.04,North,1,2.0,2.0,75,0.00,,---,0.00,VWS V14.01,2013-06-03 15:29:00,
2013-06-03 11:34:00,66.6,58.4,30.03,NNW,330,4.0,4.0,75,0.00,,---,0.00,VWS V14.01,2013-06-03 15:34:00,
2013-06-03 11:39:00,67.1,58.5,30.03,NW,305,3.0,3.0,74,0.00,,---,0.00,VWS V14.01,2013-06-03 15:39:00,
2013-06-03 11:44:00,67.2,58.6,30.03,North,1,3.0,3.0,74,0.00,,---,0.00,VWS V14.01,2013-06-03 15:44:00,
2013-06-03 11:49:00,67.2,57.9,30.03,NNW,327,4.0,4.0,72,0.00,,---,0.00,VWS V14.01,2013-06-03 15:49:00,
2013-06-03 11:54:00,67.1,57.8,30.03,NNW,329,3.0,3.0,72,0.00,,---,0.00,VWS V14.01,2013-06-03 15:54:00,
2013-06-03 11:59:00,67.1,58.2,30.02,NW,310,2.0,2.0,73,0.00,,---,0.00,VWS V14.01,2013-06-03 15:59:00,
2013-06-03 12:04:00,67.3,58.0,30.02,North,5,4.0,6.0,72,0.00,,---,0.00,VWS V14.01,2013-06-03 16:04:00,
2013-06-03 12:09:00,67.2,58.3,30.02,NW,317,4.0,7.0,73,0.00,,---,0.00,VWS V14.01,2013-06-03 16:09:00,
2013-06-03 12:14:00,67.4,58.5,30.02,WNW,296,4.0,4.0,73,0.00,,---,0.00,VWS V14.01,2013-06-03 16:14:00,
2013-06-03 12:19:00,67.6,57.9,30.02,NNE,15,2.0,6.0,71,0.00,,---,0.00,VWS V14.01,2013-06-03 16:19:00,
2013-06-03 12:24:00,68.0,57.9,30.02,NW,323,3.0,3.0,70,0.00,,---,0.00,VWS V14.01,2013-06-03 16:24:00,
2013-06-03 12:29:00,68.2,57.2,30.01,WNW,302,0.0,4.0,68,0.00,,---,0.00,VWS V14.01,2013-06-03 16:29:00,
2013-06-03 12:34:00,68.4,57.8,30.02,WNW,282,1.0,3.0,69,0.00,,---,0.00,VWS V14.01,2013-06-03 16:34:00,
2013-06-03 12:39:00,68.2,57.2,30.01,NNW,331,4.0,7.0,68,0.00,,---,0.00,VWS V14.01,2013-06-03 16:39:00,
2013-06-03 12:44:00,68.1,57.2,30.01,North,357,5.0,5.0,68,0.00,,---,0.00,VWS V14.01,2013-06-03 16:44:00,
2013-06-03 12:49:00,68.5,57.9,30.01,NNW,329,5.0,7.0,69,0.00,,---,0.00,VWS V14.01,2013-06-03 16:49:00,
2013-06-03 12:54:00,68.4,57.4,30.01,NW,320,4.0,4.0,68,0.00,,---,0.00,VWS V14.01,2013-06-03 16:54:00,
2013-06-03 12:59:00,68.5,57.1,30.01,NW,325,3.0,4.0,67,0.00,,---,0.00,VWS V14.01,2013-06-03 16:59:00,
2013-06-03 13:04:00,69.1,57.7,30.00,North,356,5.0,7.0,67,0.00,,---,0.00,VWS V14.01,2013-06-03 17:04:00,
2013-06-03 13:09:00,69.6,57.8,30.00,North,354,5.0,8.0,66,0.00,,---,0.00,VWS V14.01,2013-06-03 17:09:00,
2013-06-03 13:14:00,69.8,57.5,30.00,WNW,287,4.0,4.0,65,0.00,,---,0.00,VWS V14.01,2013-06-03 17:14:00,
2013-06-03 13:19:00,69.9,56.8,30.00,NW,312,4.0,6.0,63,0.00,,---,0.00,VWS V14.01,2013-06-03 17:19:00,
2013-06-03 13:24:00,69.7,57.0,30.00,North,349,7.0,8.0,64,0.00,,---,0.00,VWS V14.01,2013-06-03 17:24:00,
2013-06-03 13:29:00,69.9,57.2,29.99,WNW,294,6.0,8.0,64,0.00,,---,0.00,VWS V14.01,2013-06-03 17:29:00,
2013-06-03 13:34:00,70.0,56.8,29.99,West,270,3.0,7.0,63,0.00,,---,0.00,VWS V14.01,2013-06-03 17:34:00,
2013-06-03 13:39:00,70.2,55.7,29.99,NW,321,6.0,8.0,60,0.00,,---,0.00,VWS V14.01,2013-06-03 17:39:00,
2013-06-03 13:44:00,70.5,57.8,29.99,SW,234,4.0,6.0,64,0.00,,---,0.00,VWS V14.01,2013-06-03 17:44:00,
2013-06-03 13:49:00,71.0,56.9,29.99,WNW,292,7.0,7.0,61,0.00,,---,0.00,VWS V14.01,2013-06-03 17:49:00,
2013-06-03 13:54:00,70.3,55.8,29.99,NW,305,1.0,4.0,60,0.00,,---,0.00,VWS V14.01,2013-06-03 17:54:00,
2013-06-03 13:59:00,70.5,55.5,29.99,NNW,330,6.0,6.0,59,0.00,,---,0.00,VWS V14.01,2013-06-03 17:59:00,
2013-06-03 14:04:00,71.2,56.2,29.99,NNW,342,8.0,12.0,59,0.00,,---,0.00,VWS V14.01,2013-06-03 18:04:00,
2013-06-03 14:09:00,71.2,56.2,29.99,NW,308,6.0,8.0,59,0.00,,---,0.00,VWS V14.01,2013-06-03 18:09:00,
2013-06-03 14:14:00,71.9,55.9,29.99,NW,314,2.0,4.0,57,0.00,,---,0.00,VWS V14.01,2013-06-03 18:14:00,
2013-06-03 14:19:00,71.9,54.9,29.99,WNW,287,5.0,6.0,55,0.00,,---,0.00,VWS V14.01,2013-06-03 18:19:00,
2013-06-03 14:24:00,72.0,54.0,29.99,NW,304,5.0,5.0,53,0.00,,---,0.00,VWS V14.01,2013-06-03 18:24:00,
2013-06-03 14:29:00,71.7,53.7,29.98,North,11,3.0,8.0,53,0.00,,---,0.00,VWS V14.01,2013-06-03 18:29:00,
2013-06-03 14:34:00,71.7,55.2,29.98,NNW,329,4.0,5.0,56,0.00,,---,0.00,VWS V14.01,2013-06-03 18:34:00,
2013-06-03 14:39:00,70.9,54.9,29.98,North,6,6.0,8.0,57,0.00,,---,0.00,VWS V14.01,2013-06-03 18:39:00,
2013-06-03 14:44:00,70.9,54.4,29.98,North,351,5.0,5.0,56,0.00,,---,0.00,VWS V14.01,2013-06-03 18:44:00,
2013-06-03 14:49:00,70.9,54.4,29.98,NW,317,2.0,2.0,56,0.00,,---,0.00,VWS V14.01,2013-06-03 18:49:00,
2013-06-03 14:54:00,71.1,54.6,29.98,WNW,299,3.0,6.0,56,0.00,,---,0.00,VWS V14.01,2013-06-03 18:54:00,
2013-06-03 14:59:00,71.2,54.2,29.98,SW,228,6.0,6.0,55,0.00,,---,0.00,VWS V14.01,2013-06-03 18:59:00,
2013-06-03 15:04:00,71.1,55.1,29.98,SSW,201,2.0,4.0,57,0.00,,---,0.00,VWS V14.01,2013-06-03 19:04:00,
2013-06-03 15:09:00,71.2,56.2,29.98,NW,325,5.0,5.0,59,0.00,,---,0.00,VWS V14.01,2013-06-03 19:09:00,
2013-06-03 15:14:00,71.7,55.2,29.97,West,267,1.0,4.0,56,0.00,,---,0.00,VWS V14.01,2013-06-03 19:14:00,
2013-06-03 15:19:00,72.5,55.9,29.97,NNW,329,4.0,6.0,56,0.00,,---,0.00,VWS V14.01,2013-06-03 19:19:00,
2013-06-03 15:24:00,71.9,54.9,29.97,NW,318,5.0,5.0,55,0.00,,---,0.00,VWS V14.01,2013-06-03 19:24:00,
2013-06-03 15:29:00,71.5,55.5,29.97,NW,304,6.0,8.0,57,0.00,,---,0.00,VWS V14.01,2013-06-03 19:29:00,
2013-06-03 15:33:00,71.9,54.9,29.97,NW,304,1.0,3.0,55,0.00,,---,0.00,VWS V14.01,2013-06-03 19:33:00,
2013-06-03 15:38:00,72.1,54.6,29.97,WNW,298,4.0,4.0,54,0.00,,---,0.00,VWS V14.01,2013-06-03 19:38:00,
2013-06-03 15:43:00,72.7,55.1,29.98,NNW,332,7.0,8.0,54,0.00,,---,0.00,VWS V14.01,2013-06-03 19:43:00,
2013-06-03 15:48:00,72.7,55.6,29.98,WNW,288,2.0,6.0,55,0.00,,---,0.00,VWS V14.01,2013-06-03 19:48:00,
2013-06-03 15:53:00,72.8,55.7,29.98,NW,317,0.0,2.0,55,0.00,,---,0.00,VWS V14.01,2013-06-03 19:53:00,
2013-06-03 15:58:00,72.5,54.4,29.98,NNW,327,4.0,5.0,53,0.00,,---,0.00,VWS V14.01,2013-06-03 19:58:00,
2013-06-03 16:03:00,71.7,54.7,29.97,NW,313,6.0,9.0,55,0.00,,---,0.00,VWS V14.01,2013-06-03 20:03:00,
2013-06-03 16:08:00,71.5,55.0,29.97,NW,304,2.0,4.0,56,0.00,,---,0.00,VWS V14.01,2013-06-03 20:08:00,
2013-06-03 16:13:00,71.5,55.0,29.97,WNW,285,5.0,5.0,56,0.00,,---,0.00,VWS V14.01,2013-06-03 20:13:00,
2013-06-03 16:18:00,71.9,54.9,29.97,WSW,252,3.0,4.0,55,0.00,,---,0.00,VWS V14.01,2013-06-03 20:18:00,
2013-06-03 16:23:00,72.2,56.1,29.97,NW,310,3.0,3.0,57,0.00,,---,0.00,VWS V14.01,2013-06-03 20:23:00,
2013-06-03 16:28:00,72.0,55.5,29.97,West,281,3.0,4.0,56,0.00,,---,0.00,VWS V14.01,2013-06-03 20:28:00,
2013-06-03 16:33:00,71.3,55.3,29.97,WNW,296,3.0,6.0,57,0.00,,---,0.00,VWS V14.01,2013-06-03 20:33:00,
2013-06-03 16:38:00,70.9,55.9,29.97,NW,306,2.0,3.0,59,0.00,,---,0.00,VWS V14.01,2013-06-03 20:38:00,
2013-06-03 16:43:00,71.3,55.3,29.97,NNW,342,4.0,5.0,57,0.00,,---,0.00,VWS V14.01,2013-06-03 20:43:00,
2013-06-03 16:48:00,71.4,55.9,29.97,NW,323,6.0,8.0,58,0.00,,---,0.00,VWS V14.01,2013-06-03 20:48:00,
2013-06-03 16:53:00,70.6,55.6,29.96,WNW,292,1.0,2.0,59,0.00,,---,0.00,VWS V14.01,2013-06-03 20:53:00,
2013-06-03 16:58:00,70.8,54.8,29.97,NNW,346,6.0,7.0,57,0.00,,---,0.00,VWS V14.01,2013-06-03 20:58:00,
2013-06-03 17:03:00,71.1,55.6,29.96,NW,307,2.0,4.0,58,0.00,,---,0.00,VWS V14.01,2013-06-03 21:03:00,
2013-06-03 17:08:00,70.8,55.3,29.96,WNW,290,2.0,3.0,58,0.00,,---,0.00,VWS V14.01,2013-06-03 21:08:00,
2013-06-03 17:13:00,70.5,55.0,29.96,WNW,299,4.0,4.0,58,0.00,,---,0.00,VWS V14.01,2013-06-03 21:13:00,
2013-06-03 17:18:00,70.2,56.1,29.96,WNW,299,1.0,2.0,61,0.00,,---,0.00,VWS V14.01,2013-06-03 21:18:00,
2013-06-03 17:23:00,70.0,55.5,29.96,West,278,1.0,3.0,60,0.00,,---,0.00,VWS V14.01,2013-06-03 21:23:00,
2013-06-03 17:28:00,69.8,55.8,29.96,WSW,247,2.0,2.0,61,0.00,,---,0.00,VWS V14.01,2013-06-03 21:28:00,
2013-06-03 17:33:00,70.0,56.0,29.95,WNW,297,3.0,5.0,61,0.00,,---,0.00,VWS V14.01,2013-06-03 21:33:00,
2013-06-03 17:38:00,70.4,55.4,29.96,NW,305,3.0,5.0,59,0.00,,---,0.00,VWS V14.01,2013-06-03 21:38:00,
2013-06-03 17:43:00,70.4,55.4,29.95,NW,318,5.0,5.0,59,0.00,,---,0.00,VWS V14.01,2013-06-03 21:43:00,
2013-06-03 17:48:00,70.6,55.1,29.95,North,356,2.0,3.0,58,0.00,,---,0.00,VWS V14.01,2013-06-03 21:48:00,
2013-06-03 17:53:00,71.0,56.4,29.95,NW,316,3.0,3.0,60,0.00,,---,0.00,VWS V14.01,2013-06-03 21:53:00,
2013-06-03 17:58:00,71.3,56.2,29.95,NW,308,3.0,4.0,59,0.00,,---,0.00,VWS V14.01,2013-06-03 21:58:00,
2013-06-03 18:03:00,71.2,56.2,29.95,NW,317,5.0,5.0,59,0.00,,---,0.00,VWS V14.01,2013-06-03 22:03:00,
2013-06-03 18:08:00,71.5,55.5,29.95,West,275,4.0,4.0,57,0.00,,---,0.00,VWS V14.01,2013-06-03 22:08:00,
2013-06-03 18:13:00,72.0,56.0,29.95,WNW,287,1.0,2.0,57,0.00,,---,0.00,VWS V14.01,2013-06-03 22:13:00,
2013-06-03 18:18:00,71.9,55.9,29.95,WNW,282,3.0,5.0,57,0.00,,---,0.00,VWS V14.01,2013-06-03 22:18:00,
2013-06-03 18:23:00,71.7,55.7,29.94,NW,308,2.0,2.0,57,0.00,,---,0.00,VWS V14.01,2013-06-03 22:23:00,
2013-06-03 18:28:00,71.5,55.0,29.94,NNW,348,5.0,5.0,56,0.00,,---,0.00,VWS V14.01,2013-06-03 22:28:00,
2013-06-03 18:33:00,71.2,55.7,29.94,West,281,5.0,5.0,58,0.00,,---,0.00,VWS V14.01,2013-06-03 22:33:00,
2013-06-03 18:38:00,70.9,55.4,29.95,WNW,294,5.0,5.0,58,0.00,,---,0.00,VWS V14.01,2013-06-03 22:38:00,
2013-06-03 18:43:00,71.0,55.0,29.95,NNW,344,4.0,6.0,57,0.00,,---,0.00,VWS V14.01,2013-06-03 22:43:00,
2013-06-03 18:48:00,71.0,56.0,29.95,WNW,290,2.0,6.0,59,0.00,,---,0.00,VWS V14.01,2013-06-03 22:48:00,
2013-06-03 18:53:00,70.8,54.8,29.95,North,351,4.0,6.0,57,0.00,,---,0.00,VWS V14.01,2013-06-03 22:53:00,
2013-06-03 18:58:00,70.7,55.2,29.95,North,350,3.0,4.0,58,0.00,,---,0.00,VWS V14.01,2013-06-03 22:58:00,
2013-06-03 19:03:00,70.7,54.7,29.95,NNW,342,5.0,5.0,57,0.00,,---,0.00,VWS V14.01,2013-06-03 23:03:00,
2013-06-03 19:08:00,70.9,54.9,29.95,NW,317,5.0,5.0,57,0.00,,---,0.00,VWS V14.01,2013-06-03 23:08:00,
2013-06-03 19:13:00,70.9,55.4,29.95,NW,312,2.0,4.0,58,0.00,,---,0.00,VWS V14.01,2013-06-03 23:13:00,
2013-06-03 19:18:00,70.9,54.9,29.96,WNW,292,1.0,2.0,57,0.00,,---,0.00,VWS V14.01,2013-06-03 23:18:00,
2013-06-03 19:23:00,71.1,55.6,29.96,NNW,347,5.0,5.0,58,0.00,,---,0.00,VWS V14.01,2013-06-03 23:23:00,
2013-06-03 19:28:00,70.7,54.7,29.96,West,266,3.0,5.0,57,0.00,,---,0.00,VWS V14.01,2013-06-03 23:28:00,
2013-06-03 19:33:00,70.7,55.2,29.97,West,275,3.0,3.0,58,0.00,,---,0.00,VWS V14.01,2013-06-03 23:33:00,
2013-06-03 19:38:00,70.9,54.9,29.97,NW,312,3.0,4.0,57,0.00,,---,0.00,VWS V14.01,2013-06-03 23:38:00,
2013-06-03 19:43:00,70.4,54.0,29.97,NNW,339,6.0,6.0,56,0.00,,---,0.00,VWS V14.01,2013-06-03 23:43:00,
2013-06-03 19:48:00,70.1,54.7,29.97,WNW,285,1.0,2.0,58,0.00,,---,0.00,VWS V14.01,2013-06-03 23:48:00,
2013-06-03 19:53:00,70.1,54.2,29.97,West,280,0.0,2.0,57,0.00,,---,0.00,VWS V14.01,2013-06-03 23:53:00,
2013-06-03 19:58:00,69.9,54.5,29.97,NW,306,4.0,4.0,58,0.00,,---,0.00,VWS V14.01,2013-06-03 23:58:00,
2013-06-03 20:03:00,69.8,54.4,29.97,NW,313,1.0,2.0,58,0.00,,---,0.00,VWS V14.01,2013-06-04 00:03:00,
2013-06-03 20:08:00,69.7,54.8,29.97,NW,313,2.0,4.0,59,0.00,,---,0.00,VWS V14.01,2013-06-04 00:08:00,
2013-06-03 20:13:00,69.5,54.6,29.97,NNW,332,4.0,7.0,59,0.00,,---,0.00,VWS V14.01,2013-06-04 00:13:00,
2013-06-03 20:18:00,69.3,54.4,29.98,WNW,302,3.0,7.0,59,0.00,,---,0.00,VWS V14.01,2013-06-04 00:18:00,
2013-06-03 20:23:00,69.0,54.5,29.98,NW,318,2.0,3.0,60,0.00,,---,0.00,VWS V14.01,2013-06-04 00:23:00,
2013-06-03 20:28:00,68.5,54.5,29.98,NW,315,2.0,3.0,61,0.00,,---,0.00,VWS V14.01,2013-06-04 00:28:00,
2013-06-03 20:33:00,68.1,54.2,29.98,NNW,343,4.0,4.0,61,0.00,,---,0.00,VWS V14.01,2013-06-04 00:33:00,
2013-06-03 20:38:00,67.8,54.3,29.98,NW,317,1.0,3.0,62,0.00,,---,0.00,VWS V14.01,2013-06-04 00:38:00,
2013-06-03 20:43:00,67.5,54.5,29.98,NW,312,2.0,3.0,63,0.00,,---,0.00,VWS V14.01,2013-06-04 00:43:00,
2013-06-03 20:48:00,67.2,54.6,29.99,NW,310,2.0,3.0,64,0.00,,---,0.00,VWS V14.01,2013-06-04 00:48:00,
2013-06-03 20:53:00,67.0,54.4,29.99,NW,316,2.0,2.0,64,0.00,,---,0.00,VWS V14.01,2013-06-04 00:53:00,
2013-06-03 20:58:00,66.8,54.7,29.99,NW,313,1.0,2.0,65,0.00,,---,0.00,VWS V14.01,2013-06-04 00:58:00,
2013-06-03 21:03:00,66.7,54.6,29.99,NW,315,1.0,2.0,65,0.00,,---,0.00,VWS V14.01,2013-06-04 01:03:00,
2013-06-03 21:08:00,66.6,54.1,29.99,NW,319,3.0,3.0,64,0.00,,---,0.00,VWS V14.01,2013-06-04 01:08:00,
2013-06-03 21:13:00,66.5,54.4,29.99,NNW,337,2.0,3.0,65,0.00,,---,0.00,VWS V14.01,2013-06-04 01:13:00,
2013-06-03 21:18:00,66.4,54.7,30.00,NW,323,2.0,2.0,66,0.00,,---,0.00,VWS V14.01,2013-06-04 01:18:00,
2013-06-03 21:23:00,66.3,54.6,30.00,NW,320,2.0,2.0,66,0.00,,---,0.00,VWS V14.01,2013-06-04 01:23:00,
2013-06-03 21:28:00,66.2,54.5,30.00,NNW,329,3.0,5.0,66,0.00,,---,0.00,VWS V14.01,2013-06-04 01:28:00,
2013-06-03 21:33:00,66.0,54.3,30.00,NW,321,1.0,4.0,66,0.00,,---,0.00,VWS V14.01,2013-06-04 01:33:00,
2013-06-03 21:38:00,65.8,54.5,30.00,NW,316,1.0,2.0,67,0.00,,---,0.00,VWS V14.01,2013-06-04 01:38:00,
2013-06-03 21:43:00,65.6,54.4,30.00,NNW,329,3.0,3.0,67,0.00,,---,0.00,VWS V14.01,2013-06-04 01:43:00,
2013-06-03 21:48:00,65.4,54.6,30.00,North,353,2.0,2.0,68,0.00,,---,0.00,VWS V14.01,2013-06-04 01:48:00,
2013-06-03 21:53:00,65.4,54.6,30.01,North,2,3.0,3.0,68,0.00,,---,0.00,VWS V14.01,2013-06-04 01:53:00,
2013-06-03 21:58:00,65.3,54.5,30.00,North,349,1.0,3.0,68,0.00,,---,0.00,VWS V14.01,2013-06-04 01:58:00,
2013-06-03 22:03:00,65.1,54.3,30.01,North,354,1.0,2.0,68,0.00,,---,0.00,VWS V14.01,2013-06-04 02:03:00,
2013-06-03 22:08:00,64.9,54.1,30.01,NNE,13,0.0,1.0,68,0.00,,---,0.00,VWS V14.01,2013-06-04 02:08:00,
2013-06-03 22:13:00,64.6,54.2,30.01,NNE,26,0.0,0.0,69,0.00,,---,0.00,VWS V14.01,2013-06-04 02:13:00,
2013-06-03 22:18:00,64.5,54.1,30.01,NE,43,2.0,3.0,69,0.00,,---,0.00,VWS V14.01,2013-06-04 02:18:00,
2013-06-03 22:23:00,64.3,53.9,30.01,NNE,23,1.0,4.0,69,0.00,,---,0.00,VWS V14.01,2013-06-04 02:23:00,
2013-06-03 22:28:00,64.2,53.8,30.01,NNW,348,4.0,4.0,69,0.00,,---,0.00,VWS V14.01,2013-06-04 02:28:00,
2013-06-03 22:33:00,64.1,53.7,30.01,NNE,22,3.0,3.0,69,0.00,,---,0.00,VWS V14.01,2013-06-04 02:33:00,
2013-06-03 22:37:00,63.9,53.5,30.02,NE,34,2.0,3.0,69,0.00,,---,0.00,VWS V14.01,2013-06-04 02:37:00,
2013-06-03 22:42:00,63.7,53.3,30.02,NNW,342,3.0,3.0,69,0.00,,---,0.00,VWS V14.01,2013-06-04 02:42:00,
2013-06-03 22:47:00,63.5,53.5,30.02,NE,34,1.0,2.0,70,0.00,,---,0.00,VWS V14.01,2013-06-04 02:47:00,
2013-06-03 22:52:00,63.2,53.3,30.02,NNE,21,1.0,2.0,70,0.00,,---,0.00,VWS V14.01,2013-06-04 02:52:00,
2013-06-03 22:57:00,62.9,53.4,30.02,NNE,22,0.0,0.0,71,0.00,,---,0.00,VWS V14.01,2013-06-04 02:57:00,
2013-06-03 23:02:00,62.5,53.4,30.02,NNE,22,0.0,0.0,72,0.00,,---,0.00,VWS V14.01,2013-06-04 03:02:00,
2013-06-03 23:07:00,62.0,53.3,30.03,NE,41,0.0,1.0,73,0.00,,---,0.00,VWS V14.01,2013-06-04 03:07:00,
2013-06-03 23:12:00,61.6,53.2,30.03,NE,41,0.0,0.0,74,0.00,,---,0.00,VWS V14.01,2013-06-04 03:12:00,
2013-06-03 23:17:00,61.2,53.2,30.03,NE,41,0.0,0.0,75,0.00,,---,0.00,VWS V14.01,2013-06-04 03:17:00,
2013-06-03 23:22:00,60.7,53.1,30.03,NE,41,0.0,0.0,76,0.00,,---,0.00,VWS V14.01,2013-06-04 03:22:00,
2013-06-03 23:27:00,60.0,52.8,30.03,NE,41,0.0,0.0,77,0.00,,---,0.00,VWS V14.01,2013-06-04 03:27:00,
2013-06-03 23:32:00,59.4,52.9,30.03,NE,41,0.0,0.0,79,0.00,,---,0.00,VWS V14.01,2013-06-04 03:32:00,
2013-06-03 23:37:00,58.7,52.6,30.03,NE,41,0.0,0.0,80,0.00,,---,0.00,VWS V14.01,2013-06-04 03:37:00,
2013-06-03 23:42:00,58.1,52.6,30.03,NE,41,0.0,0.0,82,0.00,,---,0.00,VWS V14.01,2013-06-04 03:42:00,
2013-06-03 23:47:00,57.7,52.6,30.03,NE,41,0.0,0.0,83,0.00,,---,0.00,VWS V14.01,2013-06-04 03:47:00,
2013-06-03 23:52:00,57.3,52.2,30.03,NE,41,0.0,0.0,83,0.00,,---,0.00,VWS V14.01,2013-06-04 03:52:00,
2013-06-03 23:57:00,57.0,52.2,30.03,NE,41,0.0,0.0,84,0.00,,---,0.00,VWS V14.01,2013-06-04 03:57:00,